Time;durP1;ratioP1;P1;durP2;ratioP2;P2;SDS_P1;SDS_P2;PMS_P1;PMS_P2;Temp;Humidity;BMP_temperature;BMP_pressure;BME280_temperature;BME280_humidity;BME280_pressure;Samples;Min_cycle;Max_cycle;Signal;HPM_P1;HPM_P2
2023/05/08 00:00:28;;;;;;;4.60;1.80;;;22.90;58.00;;;;;;5091514;28;20035;-64
2023/05/08 00:02:55;;;;;;;2.50;1.88;;;22.90;57.90;;;;;;5108226;28;20503;-64
2023/05/08 00:05:21;;;;;;;2.85;1.85;;;23.00;58.00;;;;;;5101282;28;20035;-64
2023/05/08 00:07:48;;;;;;;2.25;1.48;;;22.90;58.00;;;;;;5102487;28;20032;-64
2023/05/08 00:10:14;;;;;;;2.53;1.95;;;22.90;58.10;;;;;;5103099;28;20039;-64
2023/05/08 00:12:40;;;;;;;1.95;1.50;;;22.90;58.00;;;;;;5102382;28;20024;-63
2023/05/08 00:15:07;;;;;;;1.60;1.50;;;22.90;57.90;;;;;;5083433;28;20021;-64
2023/05/08 00:17:33;;;;;;;1.98;1.75;;;22.90;57.90;;;;;;5110921;28;20036;-64
2023/05/08 00:19:59;;;;;;;3.45;1.50;;;22.90;58.00;;;;;;5102565;28;20056;-65
2023/05/08 00:22:26;;;;;;;3.88;1.70;;;22.90;58.00;;;;;;5098091;28;20409;-64
2023/05/08 00:24:52;;;;;;;2.05;1.70;;;22.90;58.00;;;;;;5103010;28;20039;-64
2023/05/08 00:27:18;;;;;;;3.28;1.45;;;22.80;57.90;;;;;;5111205;28;20043;-64
2023/05/08 00:29:44;;;;;;;2.15;1.73;;;22.90;58.00;;;;;;5098105;28;20036;-63
2023/05/08 00:32:10;;;;;;;2.10;1.50;;;22.80;58.00;;;;;;5098158;28;20051;-64
2023/05/08 00:34:36;;;;;;;1.83;1.73;;;22.80;58.00;;;;;;5089133;28;20032;-62
2023/05/08 00:37:03;;;;;;;3.28;1.73;;;22.80;58.10;;;;;;5086333;28;20039;-64
2023/05/08 00:39:29;;;;;;;4.35;1.80;;;22.70;58.30;;;;;;5097931;28;20047;-64
2023/05/08 00:41:55;;;;;;;1.90;1.60;;;22.80;58.40;;;;;;5102913;28;20135;-64
2023/05/08 00:44:21;;;;;;;2.00;1.50;;;22.70;58.40;;;;;;5101566;28;20032;-64
2023/05/08 00:46:47;;;;;;;2.40;1.73;;;22.80;58.40;;;;;;5101980;28;20371;-64
2023/05/08 00:49:14;;;;;;;2.65;1.73;;;22.70;58.40;;;;;;5099052;28;20020;-64
2023/05/08 00:51:42;;;;;;;5.03;1.75;;;22.80;58.40;;;;;;5103252;28;20036;-64
2023/05/08 00:54:08;;;;;;;1.52;1.40;;;22.70;58.40;;;;;;5099916;28;20024;-63
2023/05/08 00:56:36;;;;;;;3.83;1.75;;;22.70;58.40;;;;;;5099957;28;20032;-64
2023/05/08 00:59:07;;;;;;;1.77;1.40;;;22.70;58.50;;;;;;5103387;28;20167;-65
2023/05/08 01:01:36;;;;;;;3.22;1.83;;;22.80;58.50;;;;;;5082156;28;20060;-64
2023/05/08 01:04:03;;;;;;;4.45;1.55;;;22.80;58.50;;;;;;5094143;28;20058;-64
2023/05/08 01:06:29;;;;;;;2.03;1.60;;;22.70;58.50;;;;;;5089223;28;20038;-64
2023/05/08 01:08:56;;;;;;;2.03;1.58;;;22.90;58.60;;;;;;5098111;28;20044;-63
2023/05/08 01:11:55;;;;;;;4.38;1.83;;;22.80;58.50;;;;;;5112087;28;20059;-64
2023/05/08 01:14:50;;;;;;;2.22;1.67;;;22.80;58.50;;;;;;5101645;28;20046;-64
2023/05/08 01:17:29;;;;;;;3.15;1.85;;;22.70;58.50;;;;;;5052026;28;20562;-64
2023/05/08 01:20:36;;;;;;;2.40;2.03;;;22.80;58.50;;;;;;5028036;28;20578;-64
2023/05/08 01:23:14;;;;;;;2.88;1.65;;;23.00;58.60;;;;;;4949178;29;20535;-64
2023/05/08 01:25:52;;;;;;;1.85;1.60;;;22.80;58.50;;;;;;4952748;29;20117;-64
2023/05/08 01:28:46;;;;;;;1.95;1.80;;;22.80;58.50;;;;;;4936166;29;20134;-64
2023/05/08 01:31:15;;;;;;;;;;;22.80;58.40;;;;;;4944197;28;20131;-64
2023/05/08 01:34:29;;;;;;;3.45;1.67;;;22.90;58.50;;;;;;4930624;29;19933;-62
2023/05/08 01:37:11;;;;;;;3.50;1.88;;;22.80;58.40;;;;;;4912172;29;20056;-64
2023/05/08 01:39:44;;;;;;;1.80;1.70;;;22.70;58.40;;;;;;4894087;29;20060;-64
2023/05/08 01:42:23;;;;;;;;;;;22.70;58.40;;;;;;4894094;29;20083;-65
2023/05/08 01:44:58;;;;;;;4.60;1.60;;;22.80;58.40;;;;;;4893965;29;19942;-65
2023/05/08 01:47:28;;;;;;;2.60;1.70;;;22.70;58.40;;;;;;4893919;29;20056;-64
2023/05/08 01:50:04;;;;;;;2.63;1.80;;;22.70;58.40;;;;;;4891907;29;20466;-64
2023/05/08 01:52:36;;;;;;;1.63;1.52;;;22.60;58.30;;;;;;4892163;29;20223;-64
2023/05/08 01:55:10;;;;;;;4.35;1.75;;;22.50;58.20;;;;;;4909849;29;20492;-64
2023/05/08 01:57:41;;;;;;;1.95;1.48;;;22.50;58.20;;;;;;4913521;29;20455;-64
2023/05/08 02:00:08;;;;;;;3.67;1.95;;;22.50;58.20;;;;;;4924622;29;20178;-64
2023/05/08 02:02:37;;;;;;;2.05;1.50;;;22.70;58.50;;;;;;4918923;29;20136;-64
2023/05/08 02:05:07;;;;;;;4.50;1.77;;;22.50;58.30;;;;;;4927431;29;20068;-64
2023/05/08 02:07:36;;;;;;;4.75;1.92;;;22.60;58.30;;;;;;4929564;29;20039;-63
2023/05/08 02:10:04;;;;;;;2.63;1.77;;;22.60;58.30;;;;;;4930073;29;20535;-64
2023/05/08 02:12:31;;;;;;;2.00;1.77;;;22.70;58.40;;;;;;4961541;28;20067;-64
2023/05/08 02:15:00;;;;;;;2.75;1.92;;;22.50;58.30;;;;;;5099009;28;20433;-62
2023/05/08 02:17:28;;;;;;;3.10;1.80;;;22.60;58.20;;;;;;5109404;28;20350;-63
2023/05/08 02:19:57;;;;;;;1.95;1.70;;;22.60;58.20;;;;;;5102757;28;20052;-64
2023/05/08 02:22:24;;;;;;;2.90;2.00;;;22.60;58.20;;;;;;5096275;28;20066;-64
2023/05/08 02:24:54;;;;;;;1.58;1.33;;;22.60;58.20;;;;;;5096419;28;20077;-64
2023/05/08 02:27:25;;;;;;;3.65;1.92;;;22.60;58.20;;;;;;5112547;28;20429;-64
2023/05/08 02:29:53;;;;;;;1.70;1.52;;;22.50;58.30;;;;;;5105939;28;20494;-64
2023/05/08 02:32:20;;;;;;;1.85;1.75;;;22.50;58.30;;;;;;5106224;28;20042;-64
2023/05/08 02:34:49;;;;;;;2.83;1.55;;;22.50;58.40;;;;;;5104211;28;20036;-64
2023/05/08 02:37:20;;;;;;;1.73;1.50;;;22.40;58.30;;;;;;5093703;28;20031;-64
2023/05/08 02:39:48;;;;;;;1.95;1.58;;;22.50;58.40;;;;;;5103539;28;20039;-64
2023/05/08 02:42:14;;;;;;;3.20;1.65;;;22.40;58.40;;;;;;5104248;28;20045;-64
2023/05/08 02:44:41;;;;;;;1.92;1.73;;;22.30;58.60;;;;;;5108815;28;20097;-64
2023/05/08 02:47:19;;;;;;;2.30;1.70;;;22.30;58.60;;;;;;5086483;28;20066;-64
2023/05/08 02:49:58;;;;;;;5.15;2.13;;;22.40;58.60;;;;;;5111265;28;20023;-64
2023/05/08 02:52:34;;;;;;;1.90;1.75;;;22.40;58.60;;;;;;5053355;28;20151;-63
2023/05/08 02:55:21;;;;;;;2.28;1.67;;;22.50;58.70;;;;;;5057108;28;20451;-64
2023/05/08 02:57:58;;;;;;;3.38;1.75;;;22.40;58.60;;;;;;5082369;28;20044;-64
2023/05/08 03:00:31;;;;;;;6.00;2.70;;;22.50;58.60;;;;;;5081755;28;20039;-62
2023/05/08 03:03:07;;;;;;;6.45;3.15;;;22.50;58.60;;;;;;5086037;28;20054;-65
2023/05/08 03:05:37;;;;;;;8.30;2.95;;;22.50;58.70;;;;;;5065970;28;20035;-63
2023/05/08 03:08:09;;;;;;;4.82;2.60;;;22.50;58.70;;;;;;5051496;28;20482;-64
2023/05/08 03:10:38;;;;;;;3.67;2.40;;;22.50;58.60;;;;;;5077392;28;20063;-64
2023/05/08 03:13:08;;;;;;;8.85;1.83;;;22.50;58.60;;;;;;5068958;28;20031;-64
2023/05/08 03:15:41;;;;;;;2.83;1.92;;;22.50;58.70;;;;;;5065106;28;20024;-64
2023/05/08 03:18:10;;;;;;;3.85;2.40;;;22.60;58.60;;;;;;5064398;28;20040;-64
2023/05/08 03:20:43;;;;;;;5.40;1.98;;;22.50;58.70;;;;;;5066771;28;20045;-64
2023/05/08 03:23:12;;;;;;;5.18;3.53;;;22.60;58.60;;;;;;5063862;28;20060;-64
2023/05/08 03:25:42;;;;;;;7.03;3.40;;;22.60;58.40;;;;;;5062913;28;20051;-63
2023/05/08 03:28:09;;;;;;;12.65;4.68;;;22.90;58.50;;;;;;5070134;28;20163;-64
2023/05/08 03:30:37;;;;;;;7.13;4.18;;;22.70;58.20;;;;;;5099054;28;20106;-63
2023/05/08 03:33:08;;;;;;;6.63;3.63;;;22.80;58.10;;;;;;5090558;28;20480;-64
2023/05/08 03:35:38;;;;;;;10.95;4.70;;;22.70;58.20;;;;;;5107257;28;20042;-63
2023/05/08 03:38:07;;;;;;;11.50;4.80;;;22.80;58.20;;;;;;5092207;28;20032;-64
2023/05/08 03:40:37;;;;;;;20.90;7.18;;;22.80;58.20;;;;;;5094535;28;20646;-63
2023/05/08 03:43:07;;;;;;;15.43;7.05;;;22.70;58.20;;;;;;5088149;28;20039;-64
2023/05/08 03:45:35;;;;;;;13.57;5.05;;;22.70;58.10;;;;;;5105445;28;20012;-64
2023/05/08 03:48:04;;;;;;;14.25;4.93;;;22.80;58.10;;;;;;5077825;28;20052;-64
2023/05/08 03:50:33;;;;;;;9.23;4.28;;;22.70;58.30;;;;;;5086879;28;20534;-64
2023/05/08 03:52:59;;;;;;;13.13;4.55;;;22.60;58.40;;;;;;5072539;28;20058;-64
2023/05/08 03:55:25;;;;;;;6.53;3.55;;;22.60;58.40;;;;;;5082057;28;20033;-64
2023/05/08 03:58:30;;;;;;;9.05;3.97;;;22.50;58.50;;;;;;5059438;28;20044;-64
2023/05/08 04:01:02;;;;;;;3.20;2.20;;;22.50;58.60;;;;;;5061310;28;20039;-64
2023/05/08 04:03:35;;;;;;;2.50;2.08;;;22.50;58.70;;;;;;5067643;28;20048;-63
2023/05/08 04:06:14;;;;;;;4.47;2.13;;;22.50;58.70;;;;;;5066760;28;20135;-64
2023/05/08 04:08:48;;;;;;;3.85;2.28;;;22.60;58.80;;;;;;5049158;28;20118;-65
2023/05/08 04:11:21;;;;;;;2.42;2.00;;;22.50;58.90;;;;;;5055515;28;20031;-64
2023/05/08 04:13:53;;;;;;;2.88;2.03;;;22.50;58.70;;;;;;5080894;28;20051;-63
2023/05/08 04:16:23;;;;;;;2.35;1.90;;;22.40;58.60;;;;;;5046721;28;20040;-64
2023/05/08 04:18:57;;;;;;;3.58;2.00;;;22.50;58.80;;;;;;5039307;28;20041;-64
2023/05/08 04:21:24;;;;;;;2.00;1.58;;;22.40;58.80;;;;;;5096472;28;20448;-62
2023/05/08 04:23:55;;;;;;;4.80;2.10;;;22.60;58.60;;;;;;5111828;28;20032;-63
2023/05/08 04:26:21;;;;;;;3.40;2.10;;;22.50;58.60;;;;;;5096261;28;20084;-64
2023/05/08 04:28:50;;;;;;;2.10;1.67;;;22.50;58.60;;;;;;5109198;28;20028;-64
2023/05/08 04:31:17;;;;;;;3.20;2.38;;;22.40;58.50;;;;;;5122803;27;20038;-63
2023/05/08 04:33:44;;;;;;;2.88;1.98;;;22.40;58.60;;;;;;5092977;28;20044;-64
2023/05/08 04:36:12;;;;;;;3.45;2.10;;;22.50;58.50;;;;;;5093306;28;20099;-64
2023/05/08 04:38:39;;;;;;;4.97;2.50;;;22.50;58.40;;;;;;5091395;28;20032;-64
2023/05/08 04:41:07;;;;;;;7.68;2.83;;;22.50;58.30;;;;;;5093012;28;20036;-63
2023/05/08 04:43:36;;;;;;;5.25;2.30;;;22.50;58.50;;;;;;5092747;28;20068;-63
2023/05/08 04:46:05;;;;;;;5.40;2.47;;;22.40;58.60;;;;;;5092952;28;20040;-64
2023/05/08 04:48:32;;;;;;;4.00;2.15;;;22.40;58.60;;;;;;5091776;28;20080;-65
2023/05/08 04:50:59;;;;;;;4.38;2.00;;;22.40;58.70;;;;;;5096196;28;20031;-64
2023/05/08 04:53:26;;;;;;;4.30;2.03;;;22.50;58.70;;;;;;5092075;28;20028;-64
2023/05/08 04:55:52;;;;;;;3.92;2.17;;;22.50;58.80;;;;;;5092449;28;20039;-64
2023/05/08 04:58:19;;;;;;;3.55;1.65;;;22.40;58.70;;;;;;5091478;28;20055;-63
2023/05/08 05:00:45;;;;;;;3.65;2.20;;;22.30;58.70;;;;;;5106949;28;20028;-64
2023/05/08 05:03:11;;;;;;;2.97;2.20;;;22.30;58.70;;;;;;5102524;28;20036;-65
2023/05/08 05:05:37;;;;;;;3.38;2.33;;;22.50;58.40;;;;;;5095064;28;20130;-64
2023/05/08 05:08:04;;;;;;;2.95;1.80;;;22.50;55.40;;;;;;5091106;28;20079;-63
2023/05/08 05:10:30;;;;;;;3.53;2.50;;;22.50;53.80;;;;;;5104743;28;20268;-64
2023/05/08 05:12:56;;;;;;;4.25;2.60;;;22.60;53.10;;;;;;5107836;28;20032;-64
2023/05/08 05:15:22;;;;;;;3.45;2.10;;;22.70;53.40;;;;;;5090940;28;20101;-64
2023/05/08 05:17:48;;;;;;;2.20;1.77;;;22.80;53.90;;;;;;5107597;28;20048;-63
2023/05/08 05:20:15;;;;;;;2.40;2.00;;;23.00;54.20;;;;;;5100922;28;20135;-63
2023/05/08 05:22:41;;;;;;;3.08;1.85;;;23.00;56.90;;;;;;5106358;28;20059;-62
2023/05/08 05:25:08;;;;;;;4.45;1.95;;;23.20;55.40;;;;;;5095851;28;20034;-62
2023/05/08 05:27:38;;;;;;;2.22;1.75;;;23.30;52.90;;;;;;5092433;28;20056;-64
2023/05/08 05:30:06;;;;;;;3.20;1.70;;;23.20;51.20;;;;;;5089933;28;20172;-63
2023/05/08 05:32:32;;;;;;;8.95;2.83;;;23.40;51.00;;;;;;5108587;28;20039;-64
2023/05/08 05:34:58;;;;;;;9.98;2.25;;;23.40;49.50;;;;;;5093526;28;20031;-64
2023/05/08 05:37:25;;;;;;;1.65;1.50;;;23.40;49.10;;;;;;5091789;28;20134;-64
2023/05/08 05:39:52;;;;;;;4.00;2.25;;;23.50;53.30;;;;;;5101879;28;20035;-66
2023/05/08 05:42:18;;;;;;;2.22;2.03;;;23.50;59.00;;;;;;5094045;28;20051;-66
2023/05/08 05:44:44;;;;;;;2.40;2.20;;;23.50;59.50;;;;;;5106591;28;20182;-66
2023/05/08 05:47:11;;;;;;;2.63;2.03;;;23.50;59.10;;;;;;5097776;28;20087;-66
2023/05/08 05:49:41;;;;;;;3.10;1.88;;;23.40;58.90;;;;;;5073739;28;20444;-67
2023/05/08 05:52:08;;;;;;;3.03;1.75;;;23.40;58.20;;;;;;5074006;28;20534;-67
2023/05/08 05:54:34;;;;;;;3.28;1.83;;;23.40;59.00;;;;;;5103833;28;20047;-67
2023/05/08 05:57:01;;;;;;;2.75;1.88;;;23.20;58.80;;;;;;5109052;28;20185;-67
2023/05/08 05:59:27;;;;;;;2.85;1.98;;;23.20;58.50;;;;;;5110884;28;20032;-67
2023/05/08 06:01:53;;;;;;;4.63;1.80;;;23.10;57.10;;;;;;5093651;28;20495;-67
2023/05/08 06:04:19;;;;;;;5.45;1.92;;;23.00;56.80;;;;;;5109547;28;20055;-67
2023/05/08 06:06:45;;;;;;;3.85;2.03;;;23.00;57.80;;;;;;5087912;28;20447;-68
2023/05/08 06:09:12;;;;;;;3.25;2.10;;;23.00;58.60;;;;;;5110059;27;20065;-69
2023/05/08 06:11:38;;;;;;;3.60;1.80;;;22.90;59.50;;;;;;5093850;28;20047;-69
2023/05/08 06:14:04;;;;;;;3.60;2.20;;;23.00;59.10;;;;;;5108069;28;20073;-69
2023/05/08 06:16:30;;;;;;;4.32;2.58;;;22.90;57.80;;;;;;5093866;28;20031;-67
2023/05/08 06:18:56;;;;;;;3.28;2.00;;;22.90;59.50;;;;;;5107537;28;20091;-68
2023/05/08 06:21:24;;;;;;;2.22;1.98;;;22.80;59.00;;;;;;5091599;28;20101;-68
2023/05/08 06:23:50;;;;;;;3.30;1.40;;;22.80;58.50;;;;;;5088613;28;20066;-69
2023/05/08 06:26:16;;;;;;;2.35;1.17;;;22.80;60.60;;;;;;5081228;28;20056;-68
2023/05/08 06:28:42;;;;;;;0.85;0.80;;;23.10;61.40;;;;;;5082839;28;20028;-68
2023/05/08 06:31:08;;;;;;;0.82;0.82;;;23.20;60.80;;;;;;5072660;28;20025;-68
2023/05/08 06:33:34;;;;;;;1.15;1.05;;;23.40;60.30;;;;;;5085636;28;20047;-70
2023/05/08 06:36:00;;;;;;;1.30;0.82;;;23.40;59.50;;;;;;5073522;28;20036;-68
2023/05/08 06:38:26;;;;;;;1.77;1.13;;;23.50;59.70;;;;;;5082039;28;20065;-68
2023/05/08 06:40:52;;;;;;;2.08;1.83;;;23.40;56.80;;;;;;5092781;28;20050;-69
2023/05/08 06:43:19;;;;;;;4.15;2.17;;;23.50;56.10;;;;;;5091290;28;20408;-68
2023/05/08 06:45:45;;;;;;;3.78;2.08;;;23.50;55.00;;;;;;5091984;28;20039;-69
2023/05/08 06:48:11;;;;;;;2.17;1.55;;;23.50;54.30;;;;;;5091240;28;20039;-69
2023/05/08 06:50:38;;;;;;;1.77;1.48;;;23.60;54.20;;;;;;5092223;28;20107;-68
2023/05/08 06:53:04;;;;;;;2.05;1.80;;;23.50;53.30;;;;;;5105873;28;20429;-68
2023/05/08 06:55:30;;;;;;;3.85;2.05;;;23.60;52.30;;;;;;5092306;28;20024;-69
2023/05/08 06:57:56;;;;;;;2.17;1.77;;;23.50;52.50;;;;;;5091962;28;20035;-69
2023/05/08 07:00:22;;;;;;;3.70;1.75;;;23.50;52.80;;;;;;5090782;28;20035;-70
2023/05/08 07:02:48;;;;;;;3.03;1.77;;;23.50;52.50;;;;;;5072865;28;20052;-69
2023/05/08 07:05:14;;;;;;;2.90;1.58;;;23.70;51.50;;;;;;5089146;28;20024;-68
2023/05/08 07:07:41;;;;;;;2.38;1.73;;;23.70;52.20;;;;;;5071849;28;20060;-68
2023/05/08 07:10:08;;;;;;;2.88;1.92;;;23.70;52.20;;;;;;5090429;28;20048;-69
2023/05/08 07:12:34;;;;;;;1.90;1.75;;;23.70;52.10;;;;;;5092113;28;20038;-70
2023/05/08 07:14:59;;;;;;;1.98;1.80;;;23.70;51.90;;;;;;5073914;28;20036;-69
2023/05/08 07:17:25;;;;;;;5.75;2.05;;;23.80;51.80;;;;;;5089077;28;20036;-69
2023/05/08 07:19:52;;;;;;;2.97;2.00;;;23.70;51.60;;;;;;5087785;28;20147;-70
2023/05/08 07:22:18;;;;;;;2.83;2.10;;;23.90;51.70;;;;;;5072189;28;20052;-69
2023/05/08 07:24:45;;;;;;;2.53;1.90;;;23.80;51.40;;;;;;5088203;28;20135;-69
2023/05/08 07:27:13;;;;;;;2.55;1.58;;;23.70;51.60;;;;;;5055566;28;20127;-70
2023/05/08 07:29:40;;;;;;;2.15;1.80;;;23.70;51.50;;;;;;5088865;28;20032;-70
2023/05/08 07:32:07;;;;;;;2.35;1.70;;;23.80;51.30;;;;;;5072118;28;20110;-70
2023/05/08 07:34:33;;;;;;;3.30;2.42;;;23.80;51.20;;;;;;5087568;28;20543;-70
2023/05/08 07:36:59;;;;;;;3.58;2.13;;;23.80;49.60;;;;;;5089128;28;20082;-69
2023/05/08 07:39:25;;;;;;;2.97;1.98;;;23.90;50.70;;;;;;5086339;28;20067;-70
2023/05/08 07:41:51;;;;;;;4.45;1.80;;;23.60;51.20;;;;;;5088737;28;20064;-69
2023/05/08 07:44:17;;;;;;;3.28;2.28;;;23.60;51.50;;;;;;5088891;28;20457;-69
2023/05/08 07:46:44;;;;;;;3.35;1.65;;;23.60;51.90;;;;;;5088904;28;20413;-69
2023/05/08 07:49:10;;;;;;;2.97;2.25;;;23.40;52.20;;;;;;5075302;28;21166;-67
2023/05/08 07:51:36;;;;;;;1.95;1.75;;;23.60;52.30;;;;;;5104314;28;20372;-68
2023/05/08 07:54:02;;;;;;;2.88;1.67;;;23.50;52.50;;;;;;5104043;28;20031;-69
2023/05/08 07:56:28;;;;;;;4.65;2.42;;;23.50;52.70;;;;;;5089215;28;20430;-69
2023/05/08 07:58:54;;;;;;;2.00;1.55;;;23.50;53.20;;;;;;5091330;28;20028;-70
2023/05/08 08:01:20;;;;;;;3.83;1.95;;;23.30;53.60;;;;;;5089140;28;20539;-70
2023/05/08 08:03:46;;;;;;;4.45;1.92;;;23.20;53.50;;;;;;5090841;28;20124;-69
2023/05/08 08:06:12;;;;;;;2.15;1.58;;;23.30;53.70;;;;;;5089801;28;20503;-69
2023/05/08 08:08:39;;;;;;;4.93;2.25;;;23.30;54.00;;;;;;5090327;28;20032;-69
2023/05/08 08:11:06;;;;;;;2.83;1.92;;;23.30;54.20;;;;;;5090869;28;20111;-69
2023/05/08 08:13:32;;;;;;;2.55;1.90;;;23.30;54.80;;;;;;5090893;28;20036;-70
2023/05/08 08:15:59;;;;;;;3.28;2.28;;;23.30;56.10;;;;;;5090946;28;20036;-68
2023/05/08 08:18:25;;;;;;;4.60;2.13;;;23.30;55.40;;;;;;5090864;28;20097;-68
2023/05/08 08:20:51;;;;;;;3.35;1.88;;;23.20;55.30;;;;;;5086896;28;20389;-70
2023/05/08 08:23:17;;;;;;;4.68;2.00;;;23.00;55.20;;;;;;5070400;28;20063;-69
2023/05/08 08:25:43;;;;;;;3.58;1.83;;;23.10;55.40;;;;;;5084400;28;20415;-70
2023/05/08 08:28:09;;;;;;;5.90;2.03;;;23.10;55.40;;;;;;5089436;28;20020;-69
2023/05/08 08:30:35;;;;;;;5.97;2.25;;;23.10;55.80;;;;;;5090931;28;20081;-72
2023/05/08 08:33:01;;;;;;;3.35;2.10;;;23.10;56.00;;;;;;5077391;28;20400;-71
2023/05/08 08:35:31;;;;;;;2.78;2.42;;;23.00;56.10;;;;;;5077621;28;20028;-71
2023/05/08 08:37:57;;;;;;;3.70;2.33;;;23.00;56.20;;;;;;5089844;28;20032;-72
2023/05/08 08:40:23;;;;;;;3.75;1.85;;;23.10;56.80;;;;;;5086713;28;20077;-69
2023/05/08 08:42:49;;;;;;;3.00;2.08;;;22.90;56.80;;;;;;5090717;28;20429;-69
2023/05/08 08:45:15;;;;;;;2.40;2.20;;;22.90;56.90;;;;;;5089432;28;20046;-68
2023/05/08 08:47:44;;;;;;;1.90;1.75;;;23.00;57.30;;;;;;5079886;28;20021;-68
2023/05/08 08:50:13;;;;;;;3.85;2.67;;;22.90;57.20;;;;;;5070463;28;20442;-70
2023/05/08 08:52:53;;;;;;;2.63;2.15;;;22.90;57.00;;;;;;5070422;28;20039;-69
2023/05/08 08:55:22;;;;;;;3.70;2.15;;;22.90;57.20;;;;;;5077864;28;20043;-69
2023/05/08 08:58:21;;;;;;;3.22;2.00;;;22.90;57.30;;;;;;5090521;28;20075;-70
2023/05/08 09:00:49;;;;;;;3.95;1.67;;;23.00;57.00;;;;;;5089533;28;20529;-71
2023/05/08 09:03:15;;;;;;;4.55;2.72;;;23.00;57.10;;;;;;5090897;28;20470;-73
2023/05/08 09:05:43;;;;;;;4.07;2.20;;;23.00;56.80;;;;;;5089421;28;20055;-72
2023/05/08 09:08:09;;;;;;;2.15;1.92;;;22.90;57.00;;;;;;5091970;28;20068;-72
2023/05/08 09:10:35;;;;;;;4.20;1.80;;;23.00;57.10;;;;;;5092743;28;20169;-72
2023/05/08 09:13:04;;;;;;;2.67;1.80;;;23.00;57.20;;;;;;5111756;28;20035;-72
2023/05/08 09:15:32;;;;;;;2.38;1.70;;;23.10;57.30;;;;;;5111934;28;20123;-71
2023/05/08 09:17:59;;;;;;;6.18;2.05;;;23.10;57.40;;;;;;5111469;28;20162;-70
2023/05/08 09:20:26;;;;;;;2.80;1.80;;;23.10;57.20;;;;;;5093445;28;20208;-71
2023/05/08 09:22:53;;;;;;;5.22;2.03;;;23.00;57.10;;;;;;5090953;28;20048;-71
2023/05/08 09:25:19;;;;;;;7.25;2.65;;;23.30;56.90;;;;;;5094468;28;20141;-70
2023/05/08 09:27:45;;;;;;;2.67;1.90;;;23.30;56.70;;;;;;5111584;28;20146;-71
2023/05/08 09:30:13;;;;;;;3.35;2.33;;;23.20;56.80;;;;;;5111526;28;20031;-70
2023/05/08 09:32:41;;;;;;;3.70;2.15;;;23.30;56.70;;;;;;5094423;28;20430;-69
2023/05/08 09:35:10;;;;;;;3.80;1.95;;;23.20;56.70;;;;;;5111465;28;20043;-72
2023/05/08 09:37:41;;;;;;;3.83;2.28;;;23.20;56.80;;;;;;5110165;28;20039;-71
2023/05/08 09:40:16;;;;;;;4.50;2.72;;;23.10;56.70;;;;;;5093544;27;20360;-71
2023/05/08 09:42:42;;;;;;;2.35;2.03;;;23.10;56.60;;;;;;5110505;28;20120;-73
2023/05/08 09:45:09;;;;;;;3.53;2.05;;;23.10;56.80;;;;;;5094002;28;20048;-72
2023/05/08 09:47:38;;;;;;;3.35;2.03;;;23.20;56.70;;;;;;5092296;28;20040;-70
2023/05/08 09:50:06;;;;;;;2.60;2.40;;;23.20;56.50;;;;;;5090972;28;20167;-69
2023/05/08 09:52:34;;;;;;;2.88;2.17;;;23.20;56.70;;;;;;5087474;28;20032;-71
2023/05/08 09:55:07;;;;;;;4.63;1.92;;;23.10;56.60;;;;;;5090800;28;20047;-73
2023/05/08 09:57:37;;;;;;;3.00;1.80;;;23.10;56.70;;;;;;5089299;28;20484;-72
2023/05/08 10:00:09;;;;;;;2.63;1.65;;;23.10;56.70;;;;;;5090575;28;20032;-73
2023/05/08 10:02:41;;;;;;;2.97;1.77;;;23.10;56.20;;;;;;5073039;28;20036;-72
2023/05/08 10:05:31;;;;;;;2.30;1.77;;;23.20;56.30;;;;;;5090670;28;20065;-70
2023/05/08 10:07:58;;;;;;;3.60;2.33;;;23.30;56.30;;;;;;5086181;28;20114;-69
2023/05/08 10:10:26;;;;;;;2.83;1.90;;;23.20;53.60;;;;;;5090235;28;20077;-69
2023/05/08 10:12:54;;;;;;;3.17;1.67;;;23.40;52.40;;;;;;5089938;28;20024;-71
2023/05/08 10:15:27;;;;;;;2.63;1.83;;;23.40;48.90;;;;;;5093263;28;20066;-71
2023/05/08 10:18:07;;;;;;;2.60;2.08;;;23.40;48.40;;;;;;5087670;28;20039;-70
2023/05/08 10:20:36;;;;;;;5.95;2.42;;;23.40;48.40;;;;;;5074554;28;20060;-70
2023/05/08 10:23:06;;;;;;;2.78;1.55;;;23.40;47.70;;;;;;5088948;28;20554;-70
2023/05/08 10:25:35;;;;;;;3.67;1.90;;;23.50;46.10;;;;;;5092386;28;20036;-70
2023/05/08 10:28:30;;;;;;;3.70;1.70;;;23.40;45.50;;;;;;5080572;28;20396;-70
2023/05/08 10:31:00;;;;;;;2.80;1.65;;;23.20;45.20;;;;;;5077581;28;20111;-70
2023/05/08 10:33:32;;;;;;;7.07;2.15;;;23.20;45.00;;;;;;5085642;28;20355;-73
2023/05/08 10:35:59;;;;;;;8.82;3.58;;;23.30;46.40;;;;;;5090569;28;20024;-73
2023/05/08 10:38:26;;;;;;;2.88;1.67;;;23.30;47.30;;;;;;5071321;28;20064;-73
2023/05/08 10:40:56;;;;;;;2.70;1.67;;;23.30;47.50;;;;;;5092691;28;20123;-70
2023/05/08 10:43:29;;;;;;;4.57;1.50;;;23.30;48.10;;;;;;5090271;28;20115;-72
2023/05/08 10:45:57;;;;;;;2.35;1.45;;;23.40;50.60;;;;;;5092635;28;20043;-71
2023/05/08 10:48:53;;;;;;;1.70;1.48;;;23.50;49.50;;;;;;5092608;28;20047;-73
2023/05/08 10:51:40;;;;;;;3.22;1.75;;;23.50;49.90;;;;;;5089674;28;20034;-73
2023/05/08 10:54:35;;;;;;;2.53;2.30;;;23.50;52.40;;;;;;5089992;28;20533;-73
2023/05/08 10:57:09;;;;;;;2.53;1.90;;;23.70;51.50;;;;;;5091610;28;20123;-73
2023/05/08 10:59:43;;;;;;;5.63;2.08;;;23.70;52.30;;;;;;5091268;28;20042;-72
2023/05/08 11:02:09;;;;;;;4.45;2.60;;;23.70;51.80;;;;;;5091030;28;20044;-71
2023/05/08 11:04:35;;;;;;;4.65;4.07;;;23.80;51.50;;;;;;5092001;28;20111;-71
2023/05/08 11:07:03;;;;;;;41.47;27.80;;;23.90;51.20;;;;;;5090172;28;20039;-70
2023/05/08 11:09:47;;;;;;;4.70;2.45;;;23.90;50.80;;;;;;5090518;28;20092;-70
2023/05/08 11:12:24;;;;;;;5.13;3.60;;;24.00;54.50;;;;;;5088708;28;20032;-70
2023/05/08 11:15:05;;;;;;;4.38;3.97;;;23.90;48.80;;;;;;5091867;28;20141;-69
2023/05/08 11:17:32;;;;;;;4.55;3.13;;;23.90;47.70;;;;;;5091903;28;20035;-68
2023/05/08 11:20:04;;;;;;;3.95;2.67;;;23.90;45.30;;;;;;5091432;28;20056;-68
2023/05/08 11:22:34;;;;;;;5.60;2.95;;;23.80;48.00;;;;;;5090080;28;20044;-73
2023/05/08 11:25:04;;;;;;;3.17;2.20;;;23.90;46.00;;;;;;5089180;28;20084;-72
2023/05/08 11:27:40;;;;;;;3.92;1.92;;;23.90;44.20;;;;;;5087896;28;20127;-70
2023/05/08 11:30:22;;;;;;;2.90;1.67;;;23.90;54.80;;;;;;5094535;28;20108;-69
2023/05/08 11:32:58;;;;;;;3.10;1.97;;;24.00;55.00;;;;;;5097134;28;20036;-69
2023/05/08 11:35:45;;;;;;;2.28;1.88;;;23.90;54.70;;;;;;5084852;28;20372;-70
2023/05/08 11:38:15;;;;;;;3.10;1.98;;;24.10;55.00;;;;;;5086724;28;20069;-68
2023/05/08 11:40:48;;;;;;;2.28;2.05;;;24.10;55.50;;;;;;5106792;28;20032;-68
2023/05/08 11:43:33;;;;;;;6.22;1.95;;;24.00;55.50;;;;;;5086396;28;20044;-69
2023/05/08 11:46:01;;;;;;;2.15;1.80;;;24.10;55.70;;;;;;5084233;28;20036;-69
2023/05/08 11:48:27;;;;;;;3.22;2.30;;;23.90;56.10;;;;;;5090805;28;20040;-68
2023/05/08 11:50:53;;;;;;;1.95;1.33;;;24.00;55.90;;;;;;5089914;28;20099;-69
2023/05/08 11:53:19;;;;;;;4.53;1.85;;;24.20;56.30;;;;;;5086050;28;20028;-69
2023/05/08 11:55:49;;;;;;;2.65;2.10;;;24.10;56.40;;;;;;5088820;28;20034;-69
2023/05/08 11:58:15;;;;;;;2.38;1.65;;;24.10;56.50;;;;;;5090074;28;20028;-71
2023/05/08 12:00:44;;;;;;;3.22;1.67;;;24.10;56.50;;;;;;5087341;28;20107;-69
2023/05/08 12:03:18;;;;;;;10.32;3.00;;;24.20;56.50;;;;;;5090856;28;20145;-69
2023/05/08 12:05:45;;;;;;;3.20;2.03;;;24.20;56.60;;;;;;5089849;28;20074;-71
2023/05/08 12:08:13;;;;;;;3.58;2.13;;;24.20;56.70;;;;;;5088614;28;20028;-68
2023/05/08 12:10:45;;;;;;;1.65;1.25;;;24.10;55.80;;;;;;5090925;28;20036;-69
2023/05/08 12:13:25;;;;;;;1.80;1.70;;;24.20;56.80;;;;;;5088356;28;20044;-69
2023/05/08 12:15:59;;;;;;;3.00;2.10;;;24.20;56.70;;;;;;5089006;28;20032;-69
2023/05/08 12:18:27;;;;;;;3.67;2.20;;;24.30;56.90;;;;;;5072155;28;20056;-69
2023/05/08 12:20:59;;;;;;;3.13;1.92;;;24.20;56.90;;;;;;5088240;28;20037;-70
2023/05/08 12:23:29;;;;;;;3.75;2.05;;;24.20;57.00;;;;;;5091041;28;20418;-69
2023/05/08 12:25:59;;;;;;;4.93;2.55;;;24.20;57.00;;;;;;5108681;28;20051;-70
2023/05/08 12:28:26;;;;;;;2.58;1.85;;;24.30;57.30;;;;;;5092217;28;20142;-69
2023/05/08 12:30:52;;;;;;;4.80;2.72;;;24.10;57.20;;;;;;5109135;28;20036;-68
2023/05/08 12:33:19;;;;;;;3.10;1.95;;;24.20;57.40;;;;;;5108785;28;20043;-67
2023/05/08 12:35:46;;;;;;;5.47;2.60;;;24.30;57.10;;;;;;5091917;28;20031;-68
2023/05/08 12:38:12;;;;;;;3.80;2.28;;;24.20;57.40;;;;;;5108684;28;20085;-66
2023/05/08 12:40:51;;;;;;;4.80;2.15;;;24.30;61.10;;;;;;5103430;28;20115;-67
2023/05/08 12:43:18;;;;;;;2.53;1.70;;;24.50;59.30;;;;;;5109774;28;20040;-66
2023/05/08 12:45:44;;;;;;;4.40;2.22;;;24.50;58.20;;;;;;5112672;28;20056;-67
2023/05/08 12:48:12;;;;;;;5.57;2.40;;;24.50;57.60;;;;;;5112488;28;20053;-68
2023/05/08 12:50:40;;;;;;;3.92;2.03;;;24.50;57.50;;;;;;5112262;28;20085;-67
2023/05/08 12:53:08;;;;;;;3.50;1.92;;;24.40;57.00;;;;;;5109228;28;20036;-68
2023/05/08 12:55:36;;;;;;;2.05;1.70;;;24.40;56.90;;;;;;5088324;28;20359;-67
2023/05/08 12:58:08;;;;;;;2.38;1.42;;;24.50;57.00;;;;;;5097888;28;20484;-69
2023/05/08 13:00:39;;;;;;;5.05;2.03;;;24.50;57.00;;;;;;5094601;28;20040;-67